sensor_id;sensor_type;location;lat;lon;timestamp;P1;durP1;ratioP1;P2;durP2;ratioP2
43994;SDS011;51687;52.160;5.298;2023-04-09T00:00:42;34.20;;;30.60;;
43994;SDS011;51687;52.160;5.298;2023-04-09T00:03:08;33.30;;;29.80;;
43994;SDS011;51687;52.160;5.298;2023-04-09T00:05:39;34.35;;;30.65;;
43994;SDS011;51687;52.160;5.298;2023-04-09T00:08:06;39.90;;;32.63;;
43994;SDS011;51687;52.160;5.298;2023-04-09T00:10:33;37.42;;;32.88;;
43994;SDS011;51687;52.160;5.298;2023-04-09T00:13:00;41.40;;;32.83;;
43994;SDS011;51687;52.160;5.298;2023-04-09T00:15:26;40.13;;;33.85;;
43994;SDS011;51687;52.160;5.298;2023-04-09T00:17:57;43.15;;;34.33;;
43994;SDS011;51687;52.160;5.298;2023-04-09T00:20:24;38.63;;;34.40;;
43994;SDS011;51687;52.160;5.298;2023-04-09T00:22:51;44.17;;;34.63;;
43994;SDS011;51687;52.160;5.298;2023-04-09T00:25:19;37.80;;;32.70;;
43994;SDS011;51687;52.160;5.298;2023-04-09T00:27:46;39.42;;;32.60;;
43994;SDS011;51687;52.160;5.298;2023-04-09T00:30:13;40.47;;;34.53;;
43994;SDS011;51687;52.160;5.298;2023-04-09T00:32:39;39.08;;;32.95;;
43994;SDS011;51687;52.160;5.298;2023-04-09T00:35:06;42.22;;;33.47;;
43994;SDS011;51687;52.160;5.298;2023-04-09T00:37:34;41.88;;;33.28;;
43994;SDS011;51687;52.160;5.298;2023-04-09T00:40:00;43.90;;;33.80;;
43994;SDS011;51687;52.160;5.298;2023-04-09T00:42:31;43.70;;;33.83;;
43994;SDS011;51687;52.160;5.298;2023-04-09T00:44:58;41.00;;;34.63;;
43994;SDS011;51687;52.160;5.298;2023-04-09T00:47:26;42.35;;;34.70;;
43994;SDS011;51687;52.160;5.298;2023-04-09T00:52:22;44.10;;;32.85;;
43994;SDS011;51687;52.160;5.298;2023-04-09T00:54:50;43.00;;;33.28;;
43994;SDS011;51687;52.160;5.298;2023-04-09T00:57:18;44.65;;;35.58;;
43994;SDS011;51687;52.160;5.298;2023-04-09T00:59:45;42.45;;;33.42;;
43994;SDS011;51687;52.160;5.298;2023-04-09T01:02:12;40.97;;;34.58;;
43994;SDS011;51687;52.160;5.298;2023-04-09T01:04:39;42.40;;;33.63;;
43994;SDS011;51687;52.160;5.298;2023-04-09T01:09:53;45.00;;;33.75;;
43994;SDS011;51687;52.160;5.298;2023-04-09T01:12:37;44.72;;;35.13;;
43994;SDS011;51687;52.160;5.298;2023-04-09T01:15:20;42.70;;;33.85;;
43994;SDS011;51687;52.160;5.298;2023-04-09T01:20:39;42.92;;;34.38;;
43994;SDS011;51687;52.160;5.298;2023-04-09T01:29:03;39.08;;;31.92;;
43994;SDS011;51687;52.160;5.298;2023-04-09T01:31:35;44.13;;;36.03;;
43994;SDS011;51687;52.160;5.298;2023-04-09T01:34:05;39.42;;;32.78;;
43994;SDS011;51687;52.160;5.298;2023-04-09T01:36:33;46.42;;;36.08;;
43994;SDS011;51687;52.160;5.298;2023-04-09T01:39:02;44.08;;;35.30;;
43994;SDS011;51687;52.160;5.298;2023-04-09T01:41:30;46.58;;;34.83;;
43994;SDS011;51687;52.160;5.298;2023-04-09T01:43:58;48.30;;;35.63;;
43994;SDS011;51687;52.160;5.298;2023-04-09T01:46:27;44.33;;;35.72;;
43994;SDS011;51687;52.160;5.298;2023-04-09T01:48:55;44.72;;;33.97;;
43994;SDS011;51687;52.160;5.298;2023-04-09T01:51:22;39.97;;;33.33;;
43994;SDS011;51687;52.160;5.298;2023-04-09T01:53:49;42.55;;;33.72;;
43994;SDS011;51687;52.160;5.298;2023-04-09T01:56:16;47.55;;;35.05;;
43994;SDS011;51687;52.160;5.298;2023-04-09T01:58:43;47.33;;;35.03;;
43994;SDS011;51687;52.160;5.298;2023-04-09T02:01:14;41.88;;;33.45;;
43994;SDS011;51687;52.160;5.298;2023-04-09T02:03:50;38.88;;;33.78;;
43994;SDS011;51687;52.160;5.298;2023-04-09T02:06:24;44.03;;;33.38;;
43994;SDS011;51687;52.160;5.298;2023-04-09T02:09:12;39.22;;;33.72;;
43994;SDS011;51687;52.160;5.298;2023-04-09T02:11:43;41.70;;;34.05;;
43994;SDS011;51687;52.160;5.298;2023-04-09T02:14:13;38.88;;;33.42;;
43994;SDS011;51687;52.160;5.298;2023-04-09T02:16:41;38.97;;;32.90;;
43994;SDS011;51687;52.160;5.298;2023-04-09T02:19:08;48.95;;;36.53;;
43994;SDS011;51687;52.160;5.298;2023-04-09T02:21:35;45.08;;;33.42;;
43994;SDS011;51687;52.160;5.298;2023-04-09T02:24:02;43.97;;;34.25;;
43994;SDS011;51687;52.160;5.298;2023-04-09T02:26:29;46.53;;;35.28;;
43994;SDS011;51687;52.160;5.298;2023-04-09T02:28:55;49.22;;;36.35;;
43994;SDS011;51687;52.160;5.298;2023-04-09T02:31:22;49.13;;;35.97;;
43994;SDS011;51687;52.160;5.298;2023-04-09T02:33:49;42.78;;;35.90;;
43994;SDS011;51687;52.160;5.298;2023-04-09T02:36:16;45.60;;;35.28;;
43994;SDS011;51687;52.160;5.298;2023-04-09T02:38:43;46.65;;;36.97;;
43994;SDS011;51687;52.160;5.298;2023-04-09T02:41:09;41.38;;;35.40;;
43994;SDS011;51687;52.160;5.298;2023-04-09T02:43:36;48.13;;;36.05;;
43994;SDS011;51687;52.160;5.298;2023-04-09T02:46:03;41.38;;;34.85;;
43994;SDS011;51687;52.160;5.298;2023-04-09T02:48:30;43.35;;;34.55;;
43994;SDS011;51687;52.160;5.298;2023-04-09T02:50:57;44.72;;;35.92;;
43994;SDS011;51687;52.160;5.298;2023-04-09T02:53:24;48.45;;;36.15;;
43994;SDS011;51687;52.160;5.298;2023-04-09T02:55:51;46.22;;;35.90;;
43994;SDS011;51687;52.160;5.298;2023-04-09T02:58:21;46.75;;;36.70;;
43994;SDS011;51687;52.160;5.298;2023-04-09T03:00:47;41.28;;;34.60;;
43994;SDS011;51687;52.160;5.298;2023-04-09T03:03:16;41.92;;;34.72;;
43994;SDS011;51687;52.160;5.298;2023-04-09T03:05:43;42.10;;;35.05;;
43994;SDS011;51687;52.160;5.298;2023-04-09T03:08:10;41.17;;;34.50;;
43994;SDS011;51687;52.160;5.298;2023-04-09T03:10:37;41.30;;;35.47;;
43994;SDS011;51687;52.160;5.298;2023-04-09T03:13:04;42.60;;;34.22;;
43994;SDS011;51687;52.160;5.298;2023-04-09T03:15:30;42.45;;;36.50;;
43994;SDS011;51687;52.160;5.298;2023-04-09T03:17:57;41.17;;;34.72;;
43994;SDS011;51687;52.160;5.298;2023-04-09T03:20:24;49.05;;;35.72;;
43994;SDS011;51687;52.160;5.298;2023-04-09T03:22:51;43.13;;;35.20;;
43994;SDS011;51687;52.160;5.298;2023-04-09T03:25:17;44.60;;;35.88;;
43994;SDS011;51687;52.160;5.298;2023-04-09T03:27:46;46.67;;;36.10;;
43994;SDS011;51687;52.160;5.298;2023-04-09T03:30:12;45.22;;;35.75;;
43994;SDS011;51687;52.160;5.298;2023-04-09T03:32:39;43.47;;;35.30;;
43994;SDS011;51687;52.160;5.298;2023-04-09T03:35:06;49.35;;;36.22;;
43994;SDS011;51687;52.160;5.298;2023-04-09T03:37:33;44.47;;;34.33;;
43994;SDS011;51687;52.160;5.298;2023-04-09T03:40:00;41.67;;;34.70;;
43994;SDS011;51687;52.160;5.298;2023-04-09T03:42:27;45.10;;;35.10;;
43994;SDS011;51687;52.160;5.298;2023-04-09T03:44:54;42.90;;;34.97;;
43994;SDS011;51687;52.160;5.298;2023-04-09T03:47:20;46.72;;;36.33;;
43994;SDS011;51687;52.160;5.298;2023-04-09T03:49:47;45.45;;;35.38;;
43994;SDS011;51687;52.160;5.298;2023-04-09T03:52:14;45.72;;;35.33;;
43994;SDS011;51687;52.160;5.298;2023-04-09T03:54:41;43.10;;;33.97;;
43994;SDS011;51687;52.160;5.298;2023-04-09T03:57:08;39.25;;;33.40;;
43994;SDS011;51687;52.160;5.298;2023-04-09T03:59:35;41.05;;;34.28;;
43994;SDS011;51687;52.160;5.298;2023-04-09T04:02:02;45.50;;;35.42;;
43994;SDS011;51687;52.160;5.298;2023-04-09T04:04:29;40.05;;;32.53;;
43994;SDS011;51687;52.160;5.298;2023-04-09T04:06:56;43.83;;;34.30;;
43994;SDS011;51687;52.160;5.298;2023-04-09T04:09:22;39.40;;;32.72;;
43994;SDS011;51687;52.160;5.298;2023-04-09T04:11:49;43.03;;;32.25;;
43994;SDS011;51687;52.160;5.298;2023-04-09T04:14:16;39.50;;;33.10;;
43994;SDS011;51687;52.160;5.298;2023-04-09T04:16:43;40.90;;;33.58;;
43994;SDS011;51687;52.160;5.298;2023-04-09T04:19:10;40.88;;;32.97;;
43994;SDS011;51687;52.160;5.298;2023-04-09T04:21:37;39.40;;;31.65;;
43994;SDS011;51687;52.160;5.298;2023-04-09T04:24:03;40.30;;;32.40;;
43994;SDS011;51687;52.160;5.298;2023-04-09T04:26:31;37.00;;;32.80;;
43994;SDS011;51687;52.160;5.298;2023-04-09T04:28:57;37.47;;;32.40;;
43994;SDS011;51687;52.160;5.298;2023-04-09T04:31:24;37.47;;;31.90;;
43994;SDS011;51687;52.160;5.298;2023-04-09T04:33:52;42.88;;;34.47;;
43994;SDS011;51687;52.160;5.298;2023-04-09T04:36:19;39.25;;;33.40;;
43994;SDS011;51687;52.160;5.298;2023-04-09T04:38:45;38.90;;;33.03;;
43994;SDS011;51687;52.160;5.298;2023-04-09T04:41:12;42.65;;;33.05;;
43994;SDS011;51687;52.160;5.298;2023-04-09T04:43:39;39.58;;;32.40;;
43994;SDS011;51687;52.160;5.298;2023-04-09T04:46:06;35.38;;;31.60;;
43994;SDS011;51687;52.160;5.298;2023-04-09T04:48:33;39.80;;;32.58;;
43994;SDS011;51687;52.160;5.298;2023-04-09T04:51:00;36.20;;;31.63;;
43994;SDS011;51687;52.160;5.298;2023-04-09T04:53:27;38.70;;;31.98;;
43994;SDS011;51687;52.160;5.298;2023-04-09T04:55:54;39.60;;;32.63;;
43994;SDS011;51687;52.160;5.298;2023-04-09T04:58:21;38.08;;;32.53;;
43994;SDS011;51687;52.160;5.298;2023-04-09T05:00:47;38.38;;;31.90;;
43994;SDS011;51687;52.160;5.298;2023-04-09T05:03:14;36.88;;;32.50;;
43994;SDS011;51687;52.160;5.298;2023-04-09T05:05:41;35.08;;;30.95;;
43994;SDS011;51687;52.160;5.298;2023-04-09T05:08:08;39.03;;;32.35;;
43994;SDS011;51687;52.160;5.298;2023-04-09T05:10:35;39.05;;;32.85;;
43994;SDS011;51687;52.160;5.298;2023-04-09T05:13:02;35.35;;;31.73;;
43994;SDS011;51687;52.160;5.298;2023-04-09T05:15:29;38.10;;;31.95;;
43994;SDS011;51687;52.160;5.298;2023-04-09T05:17:56;36.25;;;32.28;;
43994;SDS011;51687;52.160;5.298;2023-04-09T05:20:23;36.85;;;32.75;;
43994;SDS011;51687;52.160;5.298;2023-04-09T05:22:50;36.58;;;32.60;;
43994;SDS011;51687;52.160;5.298;2023-04-09T05:25:17;35.58;;;31.23;;
43994;SDS011;51687;52.160;5.298;2023-04-09T05:27:44;36.35;;;32.38;;
43994;SDS011;51687;52.160;5.298;2023-04-09T05:30:11;37.13;;;32.20;;
43994;SDS011;51687;52.160;5.298;2023-04-09T05:32:38;38.05;;;32.83;;
43994;SDS011;51687;52.160;5.298;2023-04-09T05:35:05;36.08;;;32.17;;
43994;SDS011;51687;52.160;5.298;2023-04-09T05:37:32;36.05;;;32.15;;
43994;SDS011;51687;52.160;5.298;2023-04-09T05:39:59;39.95;;;32.00;;
43994;SDS011;51687;52.160;5.298;2023-04-09T05:42:26;35.90;;;32.03;;
43994;SDS011;51687;52.160;5.298;2023-04-09T05:44:53;35.83;;;31.42;;
43994;SDS011;51687;52.160;5.298;2023-04-09T05:47:19;35.92;;;31.50;;
43994;SDS011;51687;52.160;5.298;2023-04-09T05:49:46;38.22;;;32.60;;
43994;SDS011;51687;52.160;5.298;2023-04-09T05:52:14;36.95;;;32.10;;
43994;SDS011;51687;52.160;5.298;2023-04-09T05:54:41;36.67;;;31.33;;
43994;SDS011;51687;52.160;5.298;2023-04-09T05:57:08;40.22;;;31.92;;
43994;SDS011;51687;52.160;5.298;2023-04-09T05:59:35;40.33;;;34.03;;
43994;SDS011;51687;52.160;5.298;2023-04-09T06:02:02;37.30;;;32.15;;
43994;SDS011;51687;52.160;5.298;2023-04-09T06:04:29;41.60;;;34.15;;
43994;SDS011;51687;52.160;5.298;2023-04-09T06:06:55;36.90;;;32.67;;
43994;SDS011;51687;52.160;5.298;2023-04-09T06:09:25;37.70;;;33.35;;
43994;SDS011;51687;52.160;5.298;2023-04-09T06:11:55;38.35;;;33.13;;
43994;SDS011;51687;52.160;5.298;2023-04-09T06:14:22;36.35;;;31.92;;
43994;SDS011;51687;52.160;5.298;2023-04-09T06:16:49;40.00;;;33.75;;
43994;SDS011;51687;52.160;5.298;2023-04-09T06:19:17;44.35;;;35.35;;
43994;SDS011;51687;52.160;5.298;2023-04-09T06:21:44;46.57;;;38.67;;
43994;SDS011;51687;52.160;5.298;2023-04-09T06:24:11;48.47;;;38.65;;
43994;SDS011;51687;52.160;5.298;2023-04-09T06:26:37;44.75;;;37.80;;
43994;SDS011;51687;52.160;5.298;2023-04-09T06:29:04;47.08;;;38.28;;
43994;SDS011;51687;52.160;5.298;2023-04-09T06:31:31;51.85;;;38.90;;
43994;SDS011;51687;52.160;5.298;2023-04-09T06:33:59;49.47;;;38.05;;
43994;SDS011;51687;52.160;5.298;2023-04-09T06:36:26;46.97;;;38.17;;
43994;SDS011;51687;52.160;5.298;2023-04-09T06:38:53;47.03;;;38.80;;
43994;SDS011;51687;52.160;5.298;2023-04-09T06:41:20;44.67;;;38.35;;
43994;SDS011;51687;52.160;5.298;2023-04-09T06:43:48;56.07;;;40.27;;
43994;SDS011;51687;52.160;5.298;2023-04-09T06:46:17;45.03;;;38.58;;
43994;SDS011;51687;52.160;5.298;2023-04-09T06:48:45;48.38;;;40.45;;
43994;SDS011;51687;52.160;5.298;2023-04-09T06:51:12;50.33;;;39.42;;
43994;SDS011;51687;52.160;5.298;2023-04-09T06:53:40;51.55;;;40.53;;
43994;SDS011;51687;52.160;5.298;2023-04-09T06:56:07;51.63;;;41.30;;
43994;SDS011;51687;52.160;5.298;2023-04-09T06:58:34;54.15;;;39.88;;
43994;SDS011;51687;52.160;5.298;2023-04-09T07:01:00;49.47;;;40.08;;
43994;SDS011;51687;52.160;5.298;2023-04-09T07:03:28;52.13;;;40.28;;
43994;SDS011;51687;52.160;5.298;2023-04-09T07:05:55;51.90;;;39.72;;
43994;SDS011;51687;52.160;5.298;2023-04-09T07:08:22;47.75;;;38.25;;
43994;SDS011;51687;52.160;5.298;2023-04-09T07:10:49;47.70;;;38.70;;
43994;SDS011;51687;52.160;5.298;2023-04-09T07:13:16;47.58;;;39.17;;
43994;SDS011;51687;52.160;5.298;2023-04-09T07:15:43;49.55;;;39.78;;
43994;SDS011;51687;52.160;5.298;2023-04-09T07:18:09;47.63;;;38.15;;
43994;SDS011;51687;52.160;5.298;2023-04-09T07:20:36;47.78;;;37.97;;
43994;SDS011;51687;52.160;5.298;2023-04-09T07:23:03;46.45;;;35.97;;
43994;SDS011;51687;52.160;5.298;2023-04-09T07:25:30;40.72;;;34.53;;
43994;SDS011;51687;52.160;5.298;2023-04-09T07:27:57;43.55;;;35.75;;
43994;SDS011;51687;52.160;5.298;2023-04-09T07:30:24;41.55;;;33.15;;
43994;SDS011;51687;52.160;5.298;2023-04-09T07:32:51;38.67;;;32.67;;
43994;SDS011;51687;52.160;5.298;2023-04-09T07:35:18;39.88;;;33.95;;
43994;SDS011;51687;52.160;5.298;2023-04-09T07:37:45;35.33;;;30.35;;
43994;SDS011;51687;52.160;5.298;2023-04-09T07:40:11;35.47;;;31.20;;
43994;SDS011;51687;52.160;5.298;2023-04-09T07:42:38;35.20;;;31.13;;
43994;SDS011;51687;52.160;5.298;2023-04-09T07:45:06;33.72;;;30.30;;
43994;SDS011;51687;52.160;5.298;2023-04-09T07:47:33;32.20;;;29.20;;
43994;SDS011;51687;52.160;5.298;2023-04-09T07:49:59;33.03;;;29.65;;
43994;SDS011;51687;52.160;5.298;2023-04-09T07:52:26;32.40;;;28.88;;
43994;SDS011;51687;52.160;5.298;2023-04-09T07:54:53;33.40;;;29.85;;
43994;SDS011;51687;52.160;5.298;2023-04-09T07:57:20;32.92;;;29.45;;
43994;SDS011;51687;52.160;5.298;2023-04-09T07:59:47;33.63;;;30.02;;
43994;SDS011;51687;52.160;5.298;2023-04-09T08:02:14;33.20;;;29.70;;
43994;SDS011;51687;52.160;5.298;2023-04-09T08:04:41;32.20;;;28.98;;
43994;SDS011;51687;52.160;5.298;2023-04-09T08:07:08;33.97;;;30.42;;
43994;SDS011;51687;52.160;5.298;2023-04-09T08:09:35;39.83;;;32.33;;
43994;SDS011;51687;52.160;5.298;2023-04-09T08:12:01;32.83;;;29.38;;
43994;SDS011;51687;52.160;5.298;2023-04-09T08:14:28;34.38;;;30.77;;
43994;SDS011;51687;52.160;5.298;2023-04-09T08:16:55;32.65;;;29.20;;
43994;SDS011;51687;52.160;5.298;2023-04-09T08:19:22;32.85;;;29.48;;
43994;SDS011;51687;52.160;5.298;2023-04-09T08:21:49;31.75;;;28.65;;
43994;SDS011;51687;52.160;5.298;2023-04-09T08:24:17;31.87;;;28.67;;
43994;SDS011;51687;52.160;5.298;2023-04-09T08:26:44;30.10;;;26.98;;
43994;SDS011;51687;52.160;5.298;2023-04-09T08:29:11;28.27;;;25.48;;
43994;SDS011;51687;52.160;5.298;2023-04-09T08:31:40;28.65;;;25.80;;
43994;SDS011;51687;52.160;5.298;2023-04-09T08:34:07;28.48;;;25.77;;
43994;SDS011;51687;52.160;5.298;2023-04-09T08:36:34;28.52;;;25.77;;
43994;SDS011;51687;52.160;5.298;2023-04-09T08:39:01;26.23;;;23.75;;
43994;SDS011;51687;52.160;5.298;2023-04-09T08:41:28;27.80;;;25.10;;
43994;SDS011;51687;52.160;5.298;2023-04-09T08:43:56;28.17;;;25.65;;
43994;SDS011;51687;52.160;5.298;2023-04-09T08:46:25;27.50;;;24.88;;
43994;SDS011;51687;52.160;5.298;2023-04-09T08:48:53;27.23;;;24.77;;
43994;SDS011;51687;52.160;5.298;2023-04-09T08:51:21;28.85;;;25.95;;
43994;SDS011;51687;52.160;5.298;2023-04-09T08:53:56;29.65;;;26.05;;
43994;SDS011;51687;52.160;5.298;2023-04-09T08:56:28;28.52;;;25.52;;
43994;SDS011;51687;52.160;5.298;2023-04-09T08:58:55;31.05;;;27.38;;
43994;SDS011;51687;52.160;5.298;2023-04-09T09:01:26;26.40;;;23.58;;
43994;SDS011;51687;52.160;5.298;2023-04-09T09:04:00;29.00;;;26.27;;
43994;SDS011;51687;52.160;5.298;2023-04-09T09:06:32;28.85;;;26.20;;
43994;SDS011;51687;52.160;5.298;2023-04-09T09:09:04;28.50;;;25.73;;
43994;SDS011;51687;52.160;5.298;2023-04-09T09:11:39;30.70;;;27.70;;
43994;SDS011;51687;52.160;5.298;2023-04-09T09:14:07;32.88;;;29.60;;
43994;SDS011;51687;52.160;5.298;2023-04-09T09:16:36;34.30;;;30.77;;
43994;SDS011;51687;52.160;5.298;2023-04-09T09:19:27;31.98;;;28.58;;
43994;SDS011;51687;52.160;5.298;2023-04-09T09:21:55;34.60;;;30.30;;
43994;SDS011;51687;52.160;5.298;2023-04-09T09:24:29;33.00;;;29.70;;
43994;SDS011;51687;52.160;5.298;2023-04-09T09:26:57;34.60;;;31.10;;
43994;SDS011;51687;52.160;5.298;2023-04-09T09:29:24;34.65;;;29.33;;
43994;SDS011;51687;52.160;5.298;2023-04-09T09:31:52;35.53;;;31.63;;
43994;SDS011;51687;52.160;5.298;2023-04-09T09:34:21;34.17;;;30.77;;
43994;SDS011;51687;52.160;5.298;2023-04-09T09:36:49;32.72;;;29.27;;
43994;SDS011;51687;52.160;5.298;2023-04-09T09:39:17;34.47;;;31.02;;
43994;SDS011;51687;52.160;5.298;2023-04-09T09:41:44;34.28;;;30.90;;
43994;SDS011;51687;52.160;5.298;2023-04-09T09:44:12;36.23;;;32.37;;
43994;SDS011;51687;52.160;5.298;2023-04-09T09:46:56;35.30;;;31.23;;
43994;SDS011;51687;52.160;5.298;2023-04-09T09:49:24;33.72;;;30.20;;
43994;SDS011;51687;52.160;5.298;2023-04-09T09:51:51;35.35;;;31.65;;
43994;SDS011;51687;52.160;5.298;2023-04-09T09:54:21;33.00;;;29.83;;
43994;SDS011;51687;52.160;5.298;2023-04-09T09:56:51;35.35;;;31.85;;
43994;SDS011;51687;52.160;5.298;2023-04-09T09:59:25;30.70;;;27.70;;
43994;SDS011;51687;52.160;5.298;2023-04-09T10:01:58;33.03;;;29.83;;
43994;SDS011;51687;52.160;5.298;2023-04-09T10:04:27;31.45;;;28.13;;
43994;SDS011;51687;52.160;5.298;2023-04-09T10:06:55;33.63;;;30.35;;
43994;SDS011;51687;52.160;5.298;2023-04-09T10:09:23;34.15;;;30.70;;
43994;SDS011;51687;52.160;5.298;2023-04-09T10:11:53;33.22;;;30.00;;
43994;SDS011;51687;52.160;5.298;2023-04-09T10:14:21;34.97;;;31.42;;
43994;SDS011;51687;52.160;5.298;2023-04-09T10:16:48;34.08;;;30.55;;
43994;SDS011;51687;52.160;5.298;2023-04-09T10:19:16;32.55;;;29.27;;
43994;SDS011;51687;52.160;5.298;2023-04-09T10:21:51;33.90;;;30.50;;
43994;SDS011;51687;52.160;5.298;2023-04-09T10:24:19;31.90;;;28.80;;
43994;SDS011;51687;52.160;5.298;2023-04-09T10:26:47;34.40;;;31.00;;
43994;SDS011;51687;52.160;5.298;2023-04-09T10:29:15;30.05;;;27.25;;
43994;SDS011;51687;52.160;5.298;2023-04-09T10:31:53;30.30;;;27.43;;
43994;SDS011;51687;52.160;5.298;2023-04-09T10:34:21;34.35;;;30.92;;
43994;SDS011;51687;52.160;5.298;2023-04-09T10:36:52;35.05;;;30.10;;
43994;SDS011;51687;52.160;5.298;2023-04-09T10:39:29;32.97;;;29.75;;
43994;SDS011;51687;52.160;5.298;2023-04-09T10:41:57;32.28;;;29.13;;
43994;SDS011;51687;52.160;5.298;2023-04-09T10:44:27;30.70;;;27.65;;
43994;SDS011;51687;52.160;5.298;2023-04-09T10:46:57;32.35;;;29.38;;
43994;SDS011;51687;52.160;5.298;2023-04-09T10:49:25;30.67;;;27.80;;
43994;SDS011;51687;52.160;5.298;2023-04-09T10:51:53;26.77;;;24.45;;
43994;SDS011;51687;52.160;5.298;2023-04-09T10:59:53;27.65;;;25.13;;
43994;SDS011;51687;52.160;5.298;2023-04-09T11:05:09;24.15;;;22.05;;
43994;SDS011;51687;52.160;5.298;2023-04-09T11:07:56;28.00;;;25.65;;
43994;SDS011;51687;52.160;5.298;2023-04-09T11:10:31;26.77;;;24.40;;
43994;SDS011;51687;52.160;5.298;2023-04-09T11:12:59;26.60;;;24.23;;
43994;SDS011;51687;52.160;5.298;2023-04-09T11:15:26;23.35;;;21.25;;
43994;SDS011;51687;52.160;5.298;2023-04-09T11:17:53;22.73;;;20.92;;
43994;SDS011;51687;52.160;5.298;2023-04-09T11:20:23;22.63;;;20.63;;
43994;SDS011;51687;52.160;5.298;2023-04-09T11:22:51;22.50;;;20.55;;
43994;SDS011;51687;52.160;5.298;2023-04-09T11:28:05;24.58;;;22.48;;
43994;SDS011;51687;52.160;5.298;2023-04-09T11:30:33;21.25;;;19.55;;
43994;SDS011;51687;52.160;5.298;2023-04-09T11:33:01;18.80;;;17.30;;
43994;SDS011;51687;52.160;5.298;2023-04-09T11:35:28;19.33;;;17.77;;
43994;SDS011;51687;52.160;5.298;2023-04-09T11:37:55;20.23;;;18.38;;
43994;SDS011;51687;52.160;5.298;2023-04-09T11:40:22;19.73;;;18.00;;
43994;SDS011;51687;52.160;5.298;2023-04-09T11:42:51;20.48;;;18.83;;
43994;SDS011;51687;52.160;5.298;2023-04-09T11:45:22;19.48;;;17.98;;
43994;SDS011;51687;52.160;5.298;2023-04-09T11:47:51;19.20;;;17.70;;
43994;SDS011;51687;52.160;5.298;2023-04-09T11:50:18;18.73;;;17.25;;
43994;SDS011;51687;52.160;5.298;2023-04-09T11:52:47;19.13;;;17.67;;
43994;SDS011;51687;52.160;5.298;2023-04-09T11:57:51;17.40;;;16.00;;
43994;SDS011;51687;52.160;5.298;2023-04-09T12:00:19;17.85;;;16.35;;
43994;SDS011;51687;52.160;5.298;2023-04-09T12:02:46;17.63;;;15.57;;
43994;SDS011;51687;52.160;5.298;2023-04-09T12:07:52;15.85;;;14.65;;
43994;SDS011;51687;52.160;5.298;2023-04-09T12:10:27;14.52;;;13.30;;
43994;SDS011;51687;52.160;5.298;2023-04-09T12:12:59;14.93;;;13.57;;
43994;SDS011;51687;52.160;5.298;2023-04-09T12:15:30;13.45;;;12.13;;
43994;SDS011;51687;52.160;5.298;2023-04-09T12:17:58;11.85;;;10.95;;
43994;SDS011;51687;52.160;5.298;2023-04-09T12:20:26;13.20;;;12.10;;
43994;SDS011;51687;52.160;5.298;2023-04-09T12:22:58;11.63;;;10.73;;
43994;SDS011;51687;52.160;5.298;2023-04-09T12:25:26;13.45;;;12.45;;
43994;SDS011;51687;52.160;5.298;2023-04-09T12:27:53;14.13;;;12.93;;
43994;SDS011;51687;52.160;5.298;2023-04-09T12:30:21;14.03;;;12.93;;
43994;SDS011;51687;52.160;5.298;2023-04-09T12:32:49;13.53;;;12.43;;
43994;SDS011;51687;52.160;5.298;2023-04-09T12:35:17;14.15;;;13.02;;
43994;SDS011;51687;52.160;5.298;2023-04-09T12:37:44;13.88;;;12.88;;
43994;SDS011;51687;52.160;5.298;2023-04-09T12:40:12;14.30;;;12.93;;
43994;SDS011;51687;52.160;5.298;2023-04-09T12:42:43;13.13;;;12.02;;
43994;SDS011;51687;52.160;5.298;2023-04-09T12:45:12;13.90;;;12.82;;
43994;SDS011;51687;52.160;5.298;2023-04-09T12:47:39;12.82;;;11.80;;
43994;SDS011;51687;52.160;5.298;2023-04-09T12:50:07;13.52;;;12.25;;
43994;SDS011;51687;52.160;5.298;2023-04-09T12:52:34;12.52;;;11.52;;
43994;SDS011;51687;52.160;5.298;2023-04-09T12:55:02;13.05;;;12.05;;
43994;SDS011;51687;52.160;5.298;2023-04-09T12:57:29;12.68;;;11.68;;
43994;SDS011;51687;52.160;5.298;2023-04-09T12:59:57;11.77;;;10.77;;
43994;SDS011;51687;52.160;5.298;2023-04-09T13:02:24;11.32;;;10.40;;
43994;SDS011;51687;52.160;5.298;2023-04-09T13:04:51;11.48;;;10.57;;
43994;SDS011;51687;52.160;5.298;2023-04-09T13:07:18;11.77;;;10.88;;
43994;SDS011;51687;52.160;5.298;2023-04-09T13:09:46;10.95;;;10.05;;
43994;SDS011;51687;52.160;5.298;2023-04-09T13:12:15;10.25;;;9.43;;
43994;SDS011;51687;52.160;5.298;2023-04-09T13:14:44;11.90;;;10.75;;
43994;SDS011;51687;52.160;5.298;2023-04-09T13:17:12;11.38;;;10.18;;
43994;SDS011;51687;52.160;5.298;2023-04-09T13:19:39;10.88;;;9.82;;
43994;SDS011;51687;52.160;5.298;2023-04-09T13:22:08;9.70;;;8.90;;
43994;SDS011;51687;52.160;5.298;2023-04-09T13:24:35;9.75;;;8.93;;
43994;SDS011;51687;52.160;5.298;2023-04-09T13:27:03;9.67;;;8.97;;
43994;SDS011;51687;52.160;5.298;2023-04-09T13:29:30;10.57;;;9.73;;
43994;SDS011;51687;52.160;5.298;2023-04-09T13:31:58;11.05;;;10.20;;
43994;SDS011;51687;52.160;5.298;2023-04-09T13:34:27;11.85;;;10.75;;
43994;SDS011;51687;52.160;5.298;2023-04-09T13:36:54;11.55;;;10.50;;
43994;SDS011;51687;52.160;5.298;2023-04-09T13:39:22;10.13;;;9.32;;
43994;SDS011;51687;52.160;5.298;2023-04-09T13:41:49;10.65;;;9.85;;
43994;SDS011;51687;52.160;5.298;2023-04-09T13:44:16;9.93;;;9.13;;
43994;SDS011;51687;52.160;5.298;2023-04-09T13:46:43;10.20;;;9.45;;
43994;SDS011;51687;52.160;5.298;2023-04-09T13:49:11;9.40;;;8.60;;
43994;SDS011;51687;52.160;5.298;2023-04-09T13:51:38;11.20;;;10.30;;
43994;SDS011;51687;52.160;5.298;2023-04-09T13:54:05;11.20;;;10.27;;
43994;SDS011;51687;52.160;5.298;2023-04-09T13:56:33;13.68;;;12.30;;
43994;SDS011;51687;52.160;5.298;2023-04-09T13:59:00;11.85;;;10.85;;
43994;SDS011;51687;52.160;5.298;2023-04-09T14:01:28;10.90;;;10.00;;
43994;SDS011;51687;52.160;5.298;2023-04-09T14:03:55;11.77;;;10.77;;
43994;SDS011;51687;52.160;5.298;2023-04-09T14:06:23;11.90;;;10.80;;
43994;SDS011;51687;52.160;5.298;2023-04-09T14:08:51;11.10;;;10.30;;
43994;SDS011;51687;52.160;5.298;2023-04-09T14:11:18;11.30;;;10.40;;
43994;SDS011;51687;52.160;5.298;2023-04-09T14:13:46;11.65;;;10.77;;
43994;SDS011;51687;52.160;5.298;2023-04-09T14:16:13;13.48;;;12.15;;
43994;SDS011;51687;52.160;5.298;2023-04-09T14:18:40;12.95;;;11.95;;
43994;SDS011;51687;52.160;5.298;2023-04-09T14:21:08;12.13;;;11.23;;
43994;SDS011;51687;52.160;5.298;2023-04-09T14:23:35;12.32;;;11.40;;
43994;SDS011;51687;52.160;5.298;2023-04-09T14:26:04;12.40;;;11.35;;
43994;SDS011;51687;52.160;5.298;2023-04-09T14:30:58;11.52;;;10.63;;
43994;SDS011;51687;52.160;5.298;2023-04-09T14:33:26;11.20;;;10.30;;
43994;SDS011;51687;52.160;5.298;2023-04-09T14:35:53;11.30;;;10.40;;
43994;SDS011;51687;52.160;5.298;2023-04-09T14:38:21;10.73;;;9.82;;
43994;SDS011;51687;52.160;5.298;2023-04-09T14:40:51;11.20;;;10.10;;
43994;SDS011;51687;52.160;5.298;2023-04-09T14:43:19;11.43;;;10.43;;
43994;SDS011;51687;52.160;5.298;2023-04-09T14:45:46;11.38;;;10.48;;
43994;SDS011;51687;52.160;5.298;2023-04-09T14:48:13;11.55;;;10.45;;
43994;SDS011;51687;52.160;5.298;2023-04-09T14:50:40;10.95;;;10.05;;
43994;SDS011;51687;52.160;5.298;2023-04-09T14:53:08;10.30;;;9.40;;
43994;SDS011;51687;52.160;5.298;2023-04-09T14:55:35;11.35;;;10.45;;
43994;SDS011;51687;52.160;5.298;2023-04-09T14:58:02;11.20;;;10.40;;
43994;SDS011;51687;52.160;5.298;2023-04-09T15:00:33;12.48;;;9.70;;